createdAt,value
2022-09-30T00:01:12.356Z,12.63
2022-09-30T00:04:23.367Z,12.51
2022-09-30T00:07:26.410Z,12.58
2022-09-30T00:10:29.485Z,12.63
2022-09-30T00:13:34.559Z,12.61
2022-09-30T00:16:37.735Z,12.77
2022-09-30T00:19:40.636Z,12.70
2022-09-30T00:22:45.521Z,12.50
2022-09-30T00:25:48.527Z,12.55
2022-09-30T00:28:54.371Z,12.60
2022-09-30T00:31:57.187Z,12.63
2022-09-30T00:35:00.457Z,12.49
2022-09-30T00:38:03.270Z,12.59
2022-09-30T00:41:07.402Z,12.61
2022-09-30T00:44:58.836Z,12.61
2022-09-30T00:48:12.945Z,12.61
2022-09-30T00:51:16.335Z,12.56
2022-09-30T00:54:24.129Z,12.60
2022-09-30T00:57:29.079Z,12.55
2022-09-30T01:00:33.044Z,12.57
2022-09-30T01:03:40.822Z,12.49
2022-09-30T01:06:44.532Z,12.48
2022-09-30T01:09:49.310Z,12.47
2022-09-30T01:12:52.885Z,12.43
2022-09-30T01:15:58.384Z,12.43
2022-09-30T01:19:41.952Z,12.55
2022-09-30T01:23:04.577Z,12.60
2022-09-30T01:26:21.357Z,12.56
2022-09-30T01:29:44.257Z,12.59
2022-09-30T01:33:04.448Z,12.68
2022-09-30T01:36:16.364Z,12.64
2022-09-30T01:39:41.286Z,12.60
2022-09-30T01:43:05.953Z,12.60
2022-09-30T01:46:11.967Z,12.64
2022-09-30T01:49:40.296Z,12.65
2022-09-30T01:53:04.332Z,12.65
2022-09-30T01:56:25.185Z,12.63
2022-09-30T01:59:36.297Z,12.73
2022-09-30T02:03:01.637Z,12.77
2022-09-30T02:06:10.138Z,12.75
2022-09-30T02:09:25.991Z,12.79
2022-09-30T02:12:36.069Z,12.89
2022-09-30T02:15:45.192Z,12.86
2022-09-30T02:18:53.876Z,12.65
2022-09-30T02:22:06.415Z,12.70
2022-09-30T02:25:26.113Z,12.69
2022-09-30T02:28:30.613Z,12.62
2022-09-30T02:31:38.858Z,12.56
2022-09-30T02:34:47.925Z,12.63
2022-09-30T02:37:59.909Z,12.70
2022-09-30T02:41:13.046Z,12.90
2022-09-30T02:44:17.240Z,12.87
2022-09-30T02:47:32.771Z,12.90
2022-09-30T02:50:52.823Z,12.90
2022-09-30T02:54:32.695Z,12.86
2022-09-30T02:57:39.661Z,12.83
2022-09-30T03:00:43.880Z,12.79
2022-09-30T03:03:55.890Z,12.86
2022-09-30T03:06:59.806Z,13.00
2022-09-30T03:10:13.067Z,13.05
2022-09-30T03:13:52.998Z,13.03
2022-09-30T03:16:59.140Z,13.02
2022-09-30T03:20:14.743Z,13.05
2022-09-30T03:23:35.527Z,12.99
2022-09-30T03:26:47.944Z,13.11
2022-09-30T03:30:24.639Z,13.19
2022-09-30T03:33:58.640Z,13.06
2022-09-30T03:37:21.224Z,13.10
2022-09-30T03:40:28.175Z,13.18
2022-09-30T03:43:55.247Z,13.14
2022-09-30T03:47:02.923Z,13.12
2022-09-30T03:50:10.533Z,13.13
2022-09-30T03:53:13.404Z,13.07
2022-09-30T03:56:16.136Z,13.08
2022-09-30T03:59:28.546Z,13.09
2022-09-30T04:02:31.924Z,13.13
2022-09-30T04:05:34.622Z,13.26
2022-09-30T04:08:37.101Z,13.25
2022-09-30T04:11:40.130Z,13.16
2022-09-30T04:14:43.072Z,13.13
2022-09-30T04:17:45.904Z,13.13
2022-09-30T04:20:48.960Z,13.22
2022-09-30T04:23:51.892Z,13.31
2022-09-30T04:26:54.543Z,13.22
2022-09-30T04:29:57.527Z,13.38
2022-09-30T04:33:00.101Z,13.59
2022-09-30T04:36:03.099Z,13.70
2022-09-30T04:39:07.092Z,13.84
2022-09-30T04:42:09.880Z,13.71
2022-09-30T04:45:13.526Z,13.63
2022-09-30T04:48:17.061Z,13.65
2022-09-30T04:51:22.192Z,13.60
2022-09-30T04:54:25.850Z,13.46
2022-09-30T04:57:28.368Z,13.43
2022-09-30T05:00:32.510Z,13.63
2022-09-30T05:03:35.424Z,13.59
2022-09-30T05:06:40.909Z,13.53
2022-09-30T05:09:43.617Z,13.39
2022-09-30T05:12:46.755Z,13.48
2022-09-30T05:15:50.190Z,13.46
2022-09-30T05:18:53.767Z,13.51
2022-09-30T05:21:56.840Z,13.61
2022-09-30T05:24:59.769Z,13.66
2022-09-30T05:28:02.251Z,13.65
2022-09-30T05:31:06.470Z,13.66
2022-09-30T05:34:09.149Z,13.57
2022-09-30T05:37:12.054Z,13.55
2022-09-30T05:40:15.415Z,13.69
2022-09-30T05:43:18.407Z,13.75
2022-09-30T05:46:21.269Z,13.76
2022-09-30T05:49:24.456Z,13.77
2022-09-30T05:52:28.231Z,13.79
2022-09-30T05:55:33.708Z,13.73
2022-09-30T05:58:41.972Z,13.59
2022-09-30T06:01:44.914Z,13.67
2022-09-30T06:04:51.359Z,13.68
2022-09-30T06:07:53.918Z,13.69
2022-09-30T06:10:59.588Z,13.57
2022-09-30T06:14:02.709Z,13.55
2022-09-30T06:17:06.480Z,13.63
2022-09-30T06:20:12.075Z,13.55
2022-09-30T06:23:14.897Z,13.66
2022-09-30T06:26:17.578Z,13.63
2022-09-30T06:29:20.717Z,13.62
2022-09-30T06:32:24.618Z,13.70
2022-09-30T06:35:29.042Z,13.60
2022-09-30T06:38:32.779Z,13.61
2022-09-30T06:41:43.550Z,13.66
2022-09-30T06:44:53.277Z,13.65
2022-09-30T06:48:01.464Z,13.62
2022-09-30T06:51:04.605Z,13.63
2022-09-30T06:54:09.223Z,13.64
2022-09-30T06:57:12.014Z,13.64
2022-09-30T07:00:16.484Z,13.51
2022-09-30T07:03:25.728Z,13.39
2022-09-30T07:06:28.571Z,13.50
2022-09-30T07:09:32.074Z,13.49
2022-09-30T07:12:34.974Z,13.45
2022-09-30T07:15:37.692Z,13.50
2022-09-30T07:18:45.087Z,13.51
2022-09-30T07:21:49.759Z,13.48
2022-09-30T07:24:53.020Z,13.50
2022-09-30T07:27:56.579Z,13.58
2022-09-30T07:31:30.767Z,13.63
2022-09-30T07:34:26.692Z,13.58
2022-09-30T07:37:31.266Z,13.57
2022-09-30T07:40:33.922Z,13.63
2022-09-30T07:43:40.513Z,13.60
2022-09-30T07:46:44.859Z,13.63
2022-09-30T07:49:48.878Z,13.63
2022-09-30T07:52:56.133Z,13.75
2022-09-30T07:56:04.869Z,13.77
2022-09-30T07:59:08.236Z,13.76
2022-09-30T08:02:16.121Z,13.77
2022-09-30T08:05:19.166Z,13.84
2022-09-30T08:08:22.269Z,13.85
2022-09-30T08:11:27.943Z,13.88
2022-09-30T08:14:30.701Z,13.93
2022-09-30T08:17:33.526Z,14.03
2022-09-30T08:20:35.999Z,14.03
2022-09-30T08:23:38.895Z,13.99
2022-09-30T08:26:44.641Z,13.98
2022-09-30T08:29:55.156Z,13.98
2022-09-30T08:33:00.577Z,14.04
2022-09-30T08:36:10.140Z,13.95
2022-09-30T08:39:13.025Z,13.98
2022-09-30T08:42:51.473Z,14.04
2022-09-30T08:46:29.203Z,14.17
2022-09-30T08:49:32.028Z,14.16
2022-09-30T08:52:48.276Z,14.24
2022-09-30T08:55:54.732Z,14.22
2022-09-30T08:59:08.206Z,14.31
2022-09-30T09:02:20.802Z,14.50
2022-09-30T09:05:55.480Z,14.85
2022-09-30T09:09:36.271Z,15.13
2022-09-30T09:13:00.140Z,15.16
2022-09-30T09:16:05.909Z,15.53
2022-09-30T09:19:13.285Z,16.16
2022-09-30T09:22:18.220Z,16.25
2022-09-30T09:25:29.457Z,16.92
2022-09-30T09:29:00.516Z,17.14
2022-09-30T09:32:13.754Z,16.44
2022-09-30T09:35:25.246Z,16.28
2022-09-30T09:38:57.049Z,16.13
2022-09-30T09:42:12.219Z,16.11
2022-09-30T09:45:38.274Z,16.07
2022-09-30T09:48:41.498Z,15.95
2022-09-30T09:52:04.600Z,15.90
2022-09-30T09:55:09.557Z,15.84
2022-09-30T09:58:14.972Z,15.87
2022-09-30T10:01:43.073Z,15.66
2022-09-30T10:04:51.402Z,15.60
2022-09-30T10:08:14.204Z,15.49
2022-09-30T10:11:27.651Z,15.64
2022-09-30T10:14:30.346Z,15.63
2022-09-30T10:17:35.960Z,15.67
2022-09-30T10:20:39.056Z,15.83
2022-09-30T10:23:42.420Z,15.78
2022-09-30T10:26:48.562Z,15.71
2022-09-30T10:29:52.264Z,15.79
2022-09-30T10:32:54.957Z,15.69
2022-09-30T10:36:06.589Z,15.72
2022-09-30T10:39:23.307Z,15.76
2022-09-30T10:42:29.625Z,15.86
2022-09-30T10:45:38.750Z,15.88
2022-09-30T10:48:43.013Z,15.96
2022-09-30T10:51:46.720Z,16.57
2022-09-30T10:54:58.437Z,16.67
2022-09-30T10:58:40.464Z,16.81
2022-09-30T11:02:13.888Z,16.77
2022-09-30T11:05:22.517Z,16.72
2022-09-30T11:08:43.775Z,16.74
2022-09-30T11:12:01.045Z,16.85
2022-09-30T11:15:16.819Z,16.89
2022-09-30T11:18:29.692Z,17.00
2022-09-30T11:21:44.513Z,16.77
2022-09-30T11:24:50.608Z,16.62
2022-09-30T11:28:14.489Z,16.83
2022-09-30T11:31:31.312Z,16.95
2022-09-30T11:35:09.528Z,16.86
2022-09-30T11:38:37.646Z,17.89
2022-09-30T11:41:46.319Z,17.87
2022-09-30T11:45:03.400Z,17.76
2022-09-30T11:48:31.851Z,17.62
2022-09-30T11:51:57.853Z,17.76
2022-09-30T11:55:10.626Z,17.89
2022-09-30T11:58:40.989Z,18.16
2022-09-30T12:01:50.091Z,18.19
2022-09-30T12:04:59.134Z,17.94
2022-09-30T12:08:17.707Z,17.84
2022-09-30T12:11:37.771Z,17.60
2022-09-30T12:14:49.502Z,17.60
2022-09-30T12:18:11.175Z,17.82
2022-09-30T12:21:22.547Z,18.23
2022-09-30T12:24:36.386Z,18.58
2022-09-30T12:27:45.843Z,18.50
2022-09-30T12:30:55.539Z,18.40
2022-09-30T12:34:23.038Z,18.62
2022-09-30T12:37:41.127Z,18.53
2022-09-30T12:41:02.813Z,18.71
2022-09-30T12:44:36.891Z,18.62
2022-09-30T12:47:50.762Z,18.68
2022-09-30T12:50:57.911Z,18.87
2022-09-30T12:54:07.146Z,18.77
2022-09-30T12:57:10.609Z,18.70
2022-09-30T13:00:20.854Z,18.56
2022-09-30T13:03:24.938Z,18.76
2022-09-30T13:06:48.377Z,18.87
2022-09-30T13:09:56.904Z,18.87
2022-09-30T13:13:11.480Z,19.15
2022-09-30T13:16:35.317Z,18.88
2022-09-30T13:19:42.127Z,18.72
2022-09-30T13:22:45.021Z,18.57
2022-09-30T13:25:54.610Z,18.90
2022-09-30T13:29:00.411Z,18.76
2022-09-30T13:32:04.716Z,18.18
2022-09-30T13:35:45.343Z,18.31
2022-09-30T13:39:07.252Z,18.13
2022-09-30T13:42:24.500Z,17.89
2022-09-30T13:45:35.706Z,17.95
2022-09-30T13:48:48.453Z,17.82
2022-09-30T13:51:52.792Z,17.62
2022-09-30T13:54:58.044Z,17.43
2022-09-30T13:58:19.586Z,17.28
2022-09-30T14:01:41.960Z,17.37
2022-09-30T14:04:56.571Z,17.33
2022-09-30T14:08:37.372Z,17.60
2022-09-30T14:12:01.320Z,17.76
2022-09-30T14:15:25.621Z,18.16
2022-09-30T14:18:39.935Z,18.03
2022-09-30T14:22:11.539Z,18.03
2022-09-30T14:25:18.319Z,17.76
2022-09-30T14:28:39.080Z,17.79
2022-09-30T14:31:46.680Z,17.55
2022-09-30T14:34:49.650Z,17.38
2022-09-30T14:37:58.494Z,17.51
2022-09-30T14:41:18.539Z,17.65
2022-09-30T14:44:30.151Z,17.85
2022-09-30T14:47:41.632Z,17.84
2022-09-30T14:50:52.712Z,17.73
2022-09-30T14:53:58.193Z,17.81
2022-09-30T14:57:03.001Z,17.57
2022-09-30T15:00:30.967Z,17.62
2022-09-30T15:03:38.175Z,17.78
2022-09-30T15:06:46.922Z,17.42
2022-09-30T15:09:50.927Z,17.44
2022-09-30T15:12:55.265Z,17.57
2022-09-30T15:16:22.963Z,17.56
2022-09-30T15:19:43.435Z,17.57
2022-09-30T15:22:46.741Z,17.65
2022-09-30T15:25:56.189Z,17.44
2022-09-30T15:29:06.174Z,17.38
2022-09-30T15:32:15.750Z,17.02
2022-09-30T15:35:23.584Z,17.06
2022-09-30T15:38:29.043Z,17.16
2022-09-30T15:41:59.926Z,17.14
2022-09-30T15:45:04.813Z,17.02
2022-09-30T15:48:32.518Z,17.13
2022-09-30T15:51:44.368Z,17.06
2022-09-30T15:54:47.324Z,16.94
2022-09-30T15:57:57.148Z,16.87
2022-09-30T16:01:23.333Z,16.96
2022-09-30T16:04:26.688Z,16.75
2022-09-30T16:07:32.000Z,16.79
2022-09-30T16:10:37.643Z,16.81
2022-09-30T16:13:45.386Z,16.87
2022-09-30T16:16:57.330Z,16.58
2022-09-30T16:20:02.028Z,16.76
2022-09-30T16:23:45.230Z,16.75
2022-09-30T16:26:53.162Z,16.81
2022-09-30T16:29:56.220Z,16.71
2022-09-30T16:33:04.133Z,16.49
2022-09-30T16:36:10.584Z,16.45
2022-09-30T16:39:15.718Z,16.30
2022-09-30T16:42:20.256Z,16.26
2022-09-30T16:45:22.997Z,16.24
2022-09-30T16:48:27.254Z,16.23
2022-09-30T16:51:32.494Z,16.29
2022-09-30T16:54:35.393Z,16.33
2022-09-30T16:57:38.916Z,16.22
2022-09-30T17:00:44.695Z,15.95
2022-09-30T17:03:47.684Z,15.94
2022-09-30T17:06:50.639Z,15.88
2022-09-30T17:09:53.182Z,15.74
2022-09-30T17:12:58.846Z,15.67
2022-09-30T17:16:01.890Z,15.51
2022-09-30T17:19:04.828Z,15.65
2022-09-30T17:22:07.827Z,15.81
2022-09-30T17:25:14.305Z,15.85
2022-09-30T17:28:17.858Z,15.63
2022-09-30T17:31:21.430Z,15.48
2022-09-30T17:34:24.155Z,15.46
2022-09-30T17:37:30.658Z,15.24
2022-09-30T17:40:53.406Z,15.14
2022-09-30T17:43:57.890Z,15.12
2022-09-30T17:47:00.648Z,15.02
2022-09-30T17:50:04.848Z,14.93
2022-09-30T17:53:10.186Z,14.91
2022-09-30T17:56:20.286Z,14.85
2022-09-30T17:59:26.131Z,14.84
2022-09-30T18:02:29.660Z,14.73
2022-09-30T18:05:33.610Z,14.59
2022-09-30T18:08:36.501Z,14.49
2022-09-30T18:11:43.797Z,14.42
2022-09-30T18:14:46.983Z,14.32
2022-09-30T18:17:50.086Z,14.24
2022-09-30T18:20:52.629Z,14.26
2022-09-30T18:23:58.873Z,14.29
2022-09-30T18:27:01.373Z,14.29
2022-09-30T18:30:05.719Z,14.10
2022-09-30T18:33:11.626Z,14.16
2022-09-30T18:36:14.680Z,14.07
2022-09-30T18:39:17.428Z,14.09
2022-09-30T18:42:21.147Z,14.02
2022-09-30T18:45:32.154Z,13.98
2022-09-30T18:48:37.876Z,14.02
2022-09-30T18:51:41.209Z,14.05
2022-09-30T18:54:44.191Z,14.08
2022-09-30T18:57:50.783Z,14.07
2022-09-30T19:00:53.798Z,14.05
2022-09-30T19:03:57.308Z,14.20
2022-09-30T19:07:02.866Z,14.20
2022-09-30T19:10:13.238Z,14.17
2022-09-30T19:13:17.154Z,14.06
2022-09-30T19:16:22.599Z,14.17
2022-09-30T19:19:25.796Z,14.09
2022-09-30T19:22:30.351Z,13.97
2022-09-30T19:25:33.425Z,14.04
2022-09-30T19:28:38.215Z,14.10
2022-09-30T19:31:45.633Z,14.14
2022-09-30T19:35:00.831Z,14.12
2022-09-30T19:38:07.048Z,13.99
2022-09-30T19:41:10.873Z,13.87
2022-09-30T19:44:20.055Z,14.10
2022-09-30T19:47:22.994Z,14.30
2022-09-30T19:50:30.161Z,14.33
2022-09-30T19:53:41.729Z,14.56
2022-09-30T19:56:45.119Z,14.32
2022-09-30T19:59:47.695Z,14.30
2022-09-30T20:02:50.904Z,14.19
2022-09-30T20:06:05.778Z,14.06
2022-09-30T20:09:11.994Z,14.02
2022-09-30T20:12:18.228Z,14.06
2022-09-30T20:15:45.303Z,14.21
2022-09-30T20:18:51.914Z,14.18
2022-09-30T20:21:57.335Z,14.05
2022-09-30T20:25:01.426Z,14.05
2022-09-30T20:28:05.611Z,14.09
2022-09-30T20:31:14.050Z,14.06
2022-09-30T20:34:18.973Z,13.94
2022-09-30T20:37:22.057Z,14.04
2022-09-30T20:40:24.717Z,14.03
2022-09-30T20:43:30.276Z,14.06
2022-09-30T20:46:33.848Z,14.12
2022-09-30T20:49:40.367Z,14.05
2022-09-30T20:52:44.649Z,14.08
2022-09-30T20:55:47.535Z,14.09
2022-09-30T20:58:50.740Z,13.75
2022-09-30T21:01:53.701Z,13.78
2022-09-30T21:04:57.953Z,13.91
2022-09-30T21:08:02.197Z,13.88
2022-09-30T21:11:07.631Z,13.85
2022-09-30T21:14:11.138Z,13.76
2022-09-30T21:17:13.895Z,13.59
2022-09-30T21:20:16.981Z,13.82
2022-09-30T21:23:19.702Z,13.86
2022-09-30T21:26:22.654Z,13.72
2022-09-30T21:29:25.702Z,13.75
2022-09-30T21:32:29.039Z,13.76
2022-09-30T21:35:31.608Z,13.74
2022-09-30T21:38:36.421Z,13.80
2022-09-30T21:41:40.624Z,13.84
2022-09-30T21:44:43.587Z,13.82
2022-09-30T21:47:46.170Z,13.70
2022-09-30T21:50:49.440Z,13.77
2022-09-30T21:53:52.070Z,13.81
2022-09-30T21:56:55.026Z,13.86
2022-09-30T21:59:57.945Z,13.82
2022-09-30T22:03:16.797Z,13.66
2022-09-30T22:06:19.775Z,13.67
2022-09-30T22:09:22.503Z,13.67
2022-09-30T22:12:25.566Z,13.70
2022-09-30T22:15:28.273Z,13.70
2022-09-30T22:18:32.353Z,13.67
2022-09-30T22:21:37.210Z,13.70
2022-09-30T22:24:41.026Z,13.72
2022-09-30T22:27:43.660Z,13.73
2022-09-30T22:30:46.704Z,13.69
2022-09-30T22:34:10.131Z,13.70
2022-09-30T22:37:31.885Z,13.47
2022-09-30T22:40:35.819Z,13.46
2022-09-30T22:43:39.187Z,13.55
2022-09-30T22:46:41.765Z,13.46
2022-09-30T22:49:46.637Z,13.45
2022-09-30T22:52:49.591Z,13.41
2022-09-30T22:55:53.247Z,13.30
2022-09-30T22:58:56.525Z,13.48
2022-09-30T23:01:59.993Z,13.61
2022-09-30T23:05:03.315Z,13.62
2022-09-30T23:08:06.223Z,13.57
2022-09-30T23:11:16.475Z,13.53
2022-09-30T23:14:20.095Z,13.43
2022-09-30T23:17:22.986Z,13.54
2022-09-30T23:20:25.988Z,13.53
2022-09-30T23:23:33.248Z,13.51
2022-09-30T23:26:37.256Z,13.53
2022-09-30T23:29:39.772Z,13.46
2022-09-30T23:32:42.606Z,13.54
2022-09-30T23:35:48.968Z,13.58
2022-09-30T23:38:52.243Z,13.57
2022-09-30T23:41:56.392Z,13.46
2022-09-30T23:44:59.321Z,13.48
2022-09-30T23:48:02.117Z,13.48
2022-09-30T23:51:06.817Z,13.50
2022-09-30T23:54:09.470Z,13.45
2022-09-30T23:57:12.538Z,13.48
